Latest Weather Observations for Ulladulla

IDN60801

Issued at 7:35 am EDT Friday 28 November 2014 (issued every 30 minutes, with the page automatically refreshed every 10 minutes)

About weather observations | Map of weather stations | Latest weather observations for NSW | Other Formats
Station Details ID: 069138 Name: ULLADULLA AWS Lat: -35.36 Lon: 150.48 Height: 35.7 m
Data from the previous 72 hours. | See also: Recent months at Ulladulla
Date/Time
EDT
Temp
°C
App
Temp
°C
Dew
Point
Rel
Hum
%
Delta-T
°C
Wind Press
QNH
hPa
Press
MSL
hPa
Rain
since 9 am
mm
Dir
 
Spd
km/h
Gust
km/h
Spd
kts
Gust
kts
28/07:30am 16.1 16.0 13.4 84 1.5 W 6 9 3 5 1023.7 1023.7 0.0
28/07:00am 14.0 13.3 12.0 88 1.1 W 7 9 4 5 1023.5 1023.5 0.0
28/06:30am 13.4 12.5 11.5 88 1.0 W 7 9 4 5 1023.2 1023.2 0.0
28/06:00am 13.1 11.8 11.2 88 1.0 W 9 11 5 6 1022.9 1022.9 0.0
28/05:30am 13.2 12.3 11.4 89 1.0 W 7 9 4 5 1022.9 1022.9 0.0
28/05:00am 12.9 12.1 11.1 89 0.9 W 6 9 3 5 1022.7 1022.7 0.0
28/04:30am 12.9 11.9 11.1 89 0.9 W 7 9 4 5 1022.5 1022.5 0.0
28/04:00am 13.0 12.0 11.1 88 1.0 WSW 7 9 4 5 1022.6 1022.6 0.0
28/03:30am 13.3 12.4 11.5 89 1.0 WSW 7 11 4 6 1022.9 1022.9 0.0
28/03:00am 13.3 12.4 11.5 89 1.0 WSW 7 11 4 6 1023.1 1023.1 0.0
28/02:30am 13.4 12.6 11.6 89 1.0 W 7 11 4 6 1023.3 1023.3 0.0
28/02:00am 13.6 12.8 11.7 88 1.0 WSW 7 11 4 6 1023.4 1023.4 0.0
28/01:30am 13.8 13.0 11.8 88 1.1 WSW 7 11 4 6 1023.8 1023.8 0.0
28/01:00am 13.9 13.1 11.8 87 1.1 W 7 11 4 6 1024.0 1024.0 0.0
28/12:30am 14.2 13.5 12.1 87 1.1 W 7 11 4 6 1024.1 1024.1 0.0
28/12:00am 14.5 13.9 12.2 86 1.2 W 7 9 4 5 1024.4 1024.4 0.0
 
Date/Time
EDT
Temp
°C
App
Temp
°C
Dew
Point
Rel
Hum
%
Delta-T
°C
Wind Press
QNH
hPa
Press
MSL
hPa
Rain
since 9 am
mm
Dir
 
Spd
km/h
Gust
km/h
Spd
kts
Gust
kts
27/11:30pm 14.8 14.2 12.3 85 1.4 W 7 11 4 6 1024.7 1024.7 0.0
27/11:00pm 15.4 14.9 12.7 84 1.5 W 7 11 4 6 1024.9 1024.9 0.0
27/10:30pm 15.5 15.0 12.8 84 1.5 W 7 11 4 6 1025.0 1025.0 0.0
27/10:00pm 15.8 15.6 12.9 83 1.6 W 6 7 3 4 1024.9 1024.9 0.0
27/09:30pm 15.9 15.7 13.0 83 1.6 W 6 9 3 5 1024.8 1024.8 0.0
27/09:00pm 15.9 15.5 13.0 83 1.6 W 7 9 4 5 1024.5 1024.5 0.0
27/08:30pm 16.1 15.7 13.0 82 1.7 WSW 7 9 4 5 1024.4 1024.4 0.0
27/08:00pm 16.4 16.2 12.9 80 1.9 W 6 9 3 5 1024.2 1024.2 0.0
27/07:30pm 17.1 16.6 12.6 75 2.5 S 7 13 4 7 1024.1 1024.1 0.0
27/07:00pm 17.0 15.8 12.7 76 2.4 S 11 17 6 9 1023.9 1023.9 0.0
27/06:30pm 16.8 15.6 12.7 77 2.3 S 11 19 6 10 1023.8 1023.8 0.0
27/06:00pm 17.2 16.0 12.7 75 2.5 SSE 11 19 6 10 1023.4 1023.4 0.0
27/05:30pm 17.4 16.4 12.3 72 2.8 SSE 9 13 5 7 1023.3 1023.3 0.0
27/05:00pm 17.5 16.5 12.4 72 2.8 S 9 13 5 7 1023.3 1023.3 0.0
27/04:30pm 17.3 15.8 12.0 71 2.9 S 11 17 6 9 1023.3 1023.3 0.0
27/04:00pm 17.5 16.1 12.2 71 2.9 S 11 19 6 10 1023.3 1023.3 0.0
27/03:30pm 17.6 16.2 12.1 70 3.0 S 11 17 6 9 1023.3 1023.3 0.0
27/03:00pm 17.8 16.0 12.0 69 3.2 S 13 19 7 10 1023.3 1023.3 0.0
27/02:30pm 17.5 15.7 12.0 70 3.0 S 13 19 7 10 1023.4 1023.4 0.0
27/02:00pm 17.7 15.8 11.9 69 3.2 S 13 22 7 12 1023.3 1023.3 0.0
27/01:30pm 17.9 15.9 12.6 71 3.0 S 15 19 8 10 1023.4 1023.4 0.0
27/01:00pm 17.6 15.6 12.7 73 2.7 S 15 20 8 11 1023.4 1023.4 0.0
27/12:30pm 18.1 16.3 13.2 73 2.8 S 15 22 8 12 1023.4 1023.4 0.0
27/12:00pm 17.1 14.6 12.2 73 2.7 S 17 24 9 13 1023.7 1023.7 0.0
27/11:30am 17.1 14.9 12.0 72 2.8 S 15 22 8 12 1023.8 1023.8 0.0
27/11:00am 16.8 14.2 12.1 74 2.6 S 17 28 9 15 1023.8 1023.8 0.0
27/10:30am 16.9 14.1 12.6 76 2.4 S 19 28 10 15 1023.7 1023.7 0.0
27/10:00am 16.8 14.0 12.7 77 2.3 S 19 26 10 14 1023.5 1023.5 0.0
27/09:30am 16.6 14.3 13.1 80 2.0 S 17 28 9 15 1023.3 1023.3 0.0
27/09:00am 16.0 13.4 13.3 84 1.5 S 19 24 10 13 1023.2 1023.2 5.8
27/08:30am 15.6 13.1 13.6 88 1.1 S 19 30 10 16 1023.2 1023.2 5.8
27/08:00am 15.1 13.3 14.5 96 0.3 S 17 24 9 13 1023.0 1023.0 5.6
27/07:30am 15.6 13.4 14.8 95 0.5 S 20 33 11 18 1022.8 1022.8 5.0
27/07:00am 16.0 13.8 14.4 90 0.9 S 19 28 10 15 1022.4 1022.4 4.2
27/06:30am 16.3 13.9 14.3 88 1.1 SSE 20 30 11 16 1022.0 1022.0 4.0
27/06:00am 16.3 14.1 14.8 91 0.9 SSE 20 28 11 15 1021.7 1021.7 4.0
27/05:30am 16.5 14.5 14.9 90 0.9 SSE 19 28 10 15 1021.3 1021.3 3.8
27/05:00am 16.5 15.9 14.7 89 1.0 SSW 11 20 6 11 1021.0 1021.0 3.6
27/04:30am 17.7 15.7 14.0 79 2.1 S 17 26 9 14 1020.8 1020.8 3.4
27/04:00am 17.7 15.7 13.8 78 2.2 SSE 17 26 9 14 1020.5 1020.5 3.4
27/03:30am 17.7 15.7 13.8 78 2.2 SSE 17 26 9 14 1020.3 1020.3 3.4
27/03:00am 17.7 16.1 13.8 78 2.2 SSE 15 22 8 12 1020.4 1020.4 3.4
27/02:30am 17.6 15.5 13.7 78 2.2 SSE 17 26 9 14 1020.6 1020.6 3.4
27/02:00am 17.9 16.3 13.8 77 2.3 SSE 15 24 8 13 1020.6 1020.6 3.4
27/01:30am 17.8 15.4 13.9 78 2.2 SSE 19 28 10 15 1020.7 1020.7 3.4
27/01:00am 17.9 15.6 14.0 78 2.2 SSE 19 30 10 16 1020.9 1020.9 3.4
27/12:30am 17.9 15.5 13.8 77 2.3 SSE 19 26 10 14 1021.1 1021.1 3.4
27/12:00am 17.7 15.6 14.6 82 1.8 SSE 19 30 10 16 1021.2 1021.2 3.4
 
Date/Time
EDT
Temp
°C
App
Temp
°C
Dew
Point
Rel
Hum
%
Delta-T
°C
Wind Press
QNH
hPa
Press
MSL
hPa
Rain
since 9 am
mm
Dir
 
Spd
km/h
Gust
km/h
Spd
kts
Gust
kts
26/11:30pm 17.1 14.8 14.6 85 1.4 SSE 20 30 11 16 1021.2 1021.2 3.4
26/11:00pm 17.5 15.0 15.1 86 1.4 SSE 22 33 12 18 1021.1 1021.1 3.4
26/10:30pm 17.2 14.7 15.2 88 1.2 SSE 22 33 12 18 1020.9 1020.9 3.2
26/10:00pm 17.7 15.8 16.6 93 0.7 SSE 22 33 12 18 1020.6 1020.6 2.8
26/09:30pm 17.9 15.9 17.3 96 0.4 SE 24 33 13 18 1020.2 1020.2 2.0
26/09:00pm 17.8 14.9 17.0 95 0.5 SSE 28 41 15 22 1019.8 1019.8 1.2
26/08:30pm 19.0 17.3 16.2 84 1.7 SE 20 32 11 17 1019.5 1019.5 0.0
26/08:00pm 20.0 22.1 16.2 79 2.3 CALM 0 4 0 2 1019.3 1019.3 0.0
26/07:30pm 20.1 21.4 16.1 78 2.4 E 4 7 2 4 1018.9 1018.9 0.0
26/07:00pm 20.4 21.1 16.2 77 2.5 ENE 7 13 4 7 1018.5 1018.5 0.0
26/06:30pm 20.9 21.8 16.1 74 2.9 E 6 13 3 7 1018.2 1018.2 0.0
26/06:00pm 21.8 22.5 17.0 74 2.9 ENE 9 13 5 7 1017.8 1017.7 0.0
26/05:30pm 21.8 22.3 16.5 72 3.2 ENE 9 17 5 9 1017.5 1017.4 0.0
26/05:00pm 22.0 22.5 16.5 71 3.3 ENE 9 17 5 9 1017.3 1017.2 0.0
26/04:30pm 22.0 22.1 16.5 71 3.3 ENE 11 20 6 11 1017.1 1017.0 0.0
26/04:00pm 22.5 22.8 17.0 71 3.4 ENE 11 22 6 12 1016.9 1016.8 0.0
26/03:30pm 22.0 21.6 16.3 70 3.5 ENE 13 20 7 11 1016.8 1016.7 0.0
26/03:00pm 22.0 20.8 16.1 69 3.6 ENE 17 26 9 14 1016.8 1016.7 0.0
26/02:30pm 21.7 19.9 15.5 68 3.7 NE 19 26 10 14 1016.7 1016.6 0.0
26/02:00pm 22.1 21.0 16.4 70 3.5 ENE 17 30 9 16 1016.5 1016.4 0.0
26/01:30pm 21.9 20.1 15.5 67 3.8 ENE 19 32 10 17 1016.5 1016.4 0.0
26/01:00pm 22.2 21.2 16.5 70 3.5 ENE 17 28 9 15 1016.7 1016.6 0.0
26/12:30pm 21.8 20.0 16.1 70 3.4 ENE 20 28 11 15 1016.9 1016.8 0.0
26/12:00pm 22.7 22.4 16.5 68 3.8 ENE 13 19 7 10 1017.2 1017.1 0.0
26/11:30am 22.5 22.1 15.1 63 4.4 NE 11 17 6 9 1017.6 1017.5 0.0
26/11:00am 21.6 20.8 15.2 67 3.8 NNE 13 19 7 10 1017.8 1017.7 0.0
26/10:30am 21.1 19.1 14.0 64 4.1 NNE 17 24 9 13 1018.0 1018.0 0.0
26/10:00am 20.8 18.9 14.2 66 3.8 NNE 17 22 9 12 1018.3 1018.3 0.0
26/09:30am 20.7 19.5 14.1 66 3.8 NE 13 24 7 13 1018.6 1018.6 0.0
26/09:00am 20.1 19.6 14.9 72 3.0 NNE 11 19 6 10 1019.0 1019.0 0.0
26/08:30am 18.9 18.4 13.7 72 3.0 NNE 9 13 5 7 1019.3 1019.3 0.0
26/08:00am 18.7 18.0 13.3 71 3.1 N 9 15 5 8 1019.5 1019.5 0.0
26/07:30am 18.3 18.0 13.2 72 2.9 N 7 15 4 8 1019.3 1019.3 0.0
26/07:00am 17.7 17.4 13.2 75 2.5 NNW 7 11 4 6 1019.3 1019.3 0.0
26/06:30am 16.2 15.9 12.7 80 1.9 NNW 6 9 3 5 1019.2 1019.2 0.0
26/06:00am 15.5 15.3 11.9 79 1.9 NNW 4 6 2 3 1019.2 1019.2 0.0
26/05:30am 15.9 15.8 12.1 78 2.1 NNW 4 6 2 3 1019.0 1019.0 0.0
26/05:00am 16.3 15.9 12.3 77 2.2 NNW 6 7 3 4 1018.6 1018.6 0.0
26/04:30am 16.7 16.4 12.7 77 2.2 NNW 6 7 3 4 1018.6 1018.6 0.0
26/04:00am 16.7 16.4 12.7 77 2.2 NW 6 7 3 4 1018.8 1018.8 0.0
26/03:30am 16.9 16.5 12.4 75 2.5 NNW 6 11 3 6 1018.9 1018.9 0.0
26/03:00am 17.2 17.2 12.5 74 2.6 NNW 4 7 2 4 1019.1 1019.1 0.0
26/02:30am 17.9 17.6 12.8 72 2.9 N 6 11 3 6 1019.3 1019.3 0.0
26/02:00am 18.3 16.7 12.7 70 3.1 NNE 13 20 7 11 1019.6 1019.6 0.0
26/01:30am 18.4 16.8 12.8 70 3.1 NNE 13 24 7 13 1019.9 1019.9 0.0
26/01:00am 18.5 16.9 12.9 70 3.1 NNE 13 24 7 13 1020.2 1020.2 0.0
26/12:30am 18.5 17.2 12.5 68 3.3 NNE 11 22 6 12 1020.3 1020.3 0.0
26/12:00am 18.5 17.5 12.3 67 3.4 NNE 9 19 5 10 1020.5 1020.5 0.0
 
Date/Time
EDT
Temp
°C
App
Temp
°C
Dew
Point
Rel
Hum
%
Delta-T
°C
Wind Press
QNH
hPa
Press
MSL
hPa
Rain
since 9 am
mm
Dir
 
Spd
km/h
Gust
km/h
Spd
kts
Gust
kts
25/11:30pm 18.6 16.6 12.6 68 3.4 NNE 15 24 8 13 1020.7 1020.7 0.0
25/11:00pm 18.6 16.1 12.4 67 3.4 NNE 17 24 9 13 1020.7 1020.7 0.0
25/10:30pm 18.6 16.1 12.4 67 3.5 NNE 17 24 9 13 1020.7 1020.7 0.0
25/10:00pm 18.6 16.0 12.1 66 3.6 NNE 17 22 9 12 1020.5 1020.5 0.0
25/09:30pm 18.5 17.1 12.3 67 3.4 NE 11 22 6 12 1020.2 1020.2 0.0
25/09:00pm 18.6 17.3 12.4 67 3.4 NE 11 22 6 12 1019.9 1019.9 0.0
25/08:30pm 18.5 17.0 12.0 66 3.6 NE 11 19 6 10 1019.5 1019.5 0.0
25/08:00pm 18.6 17.0 11.7 64 3.8 NE 11 17 6 9 1019.1 1019.1 0.0
25/07:30pm 18.6 17.3 11.4 63 3.9 NE 9 19 5 10 1018.8 1018.8 0.0
25/07:00pm 18.7 17.3 11.0 61 4.2 NE 9 17 5 9 1018.3 1018.3 0.0
25/06:30pm 18.8 17.5 11.4 62 4.1 NE 9 17 5 9 1017.9 1017.9 0.0
25/06:00pm 18.9 17.6 11.2 61 4.2 ENE 9 17 5 9 1017.6 1017.5 0.0
25/05:30pm 19.2 18.2 11.0 59 4.5 ENE 7 13 4 7 1017.2 1017.1 0.0
25/05:00pm 19.8 18.7 11.8 60 4.4 ENE 9 17 5 9 1017.0 1016.9 0.0
25/04:30pm 20.1 19.3 11.6 58 4.7 ENE 7 13 4 7 1016.9 1016.8 0.0
25/04:00pm 20.3 19.2 12.0 59 4.6 E 9 17 5 9 1016.8 1016.7 0.0
25/03:30pm 21.2 20.1 12.1 56 5.1 E 9 17 5 9 1016.4 1016.3 0.0
25/03:00pm 20.9 19.1 12.1 57 4.9 E 13 20 7 11 1016.2 1016.1 0.0
25/02:30pm 20.9 19.4 13.1 61 4.5 E 13 17 7 9 1016.0 1015.9 0.0
25/02:00pm 21.4 20.7 13.3 60 4.6 E 9 15 5 8 1015.8 1015.7 0.0
25/01:30pm 20.9 20.2 13.1 61 4.5 E 9 15 5 8 1015.7 1015.6 0.0
25/01:00pm 20.7 20.1 13.4 63 4.2 ENE 9 15 5 8 1015.6 1015.5 0.0
25/12:30pm 20.4 19.8 13.6 65 3.9 ENE 9 15 5 8 1015.7 1015.6 0.0
25/12:00pm 20.2 19.5 13.2 64 4.0 E 9 17 5 9 1015.6 1015.5 0.0
25/11:30am 20.1 19.3 12.8 63 4.1 ENE 9 13 5 7 1015.6 1015.5 0.0
25/11:00am 20.0 19.5 12.7 63 4.1 SE 7 13 4 7 1015.4 1015.3 0.0
25/10:30am 20.0 19.4 13.5 66 3.7 SSE 9 15 5 8 1015.4 1015.3 0.0
25/10:00am 18.9 17.7 12.9 68 3.4 SSE 11 17 6 9 1015.3 1015.2 0.0
25/09:30am 17.7 15.2 12.4 71 2.9 SSE 17 22 9 12 1015.3 1015.2 0.0
25/09:00am 18.2 15.9 13.1 72 2.9 S 17 24 9 13 1014.5 1014.4 1.6
25/08:30am 17.8 13.8 12.9 73 2.7 S 26 33 14 18 1014.1 1014.0 1.6
25/08:00am 17.9 14.2 13.8 77 2.3 S 26 32 14 17 1013.5 1013.4 1.6

Other Formats:

Comma delimited format used in spreadsheet applications
http://www.bom.gov.au/fwo/IDN60801/IDN60801.94938.axf

JavaScript Object Notation format (JSON) in row-major order
http://www.bom.gov.au/fwo/IDN60801/IDN60801.94938.json